Time;durP1;ratioP1;P1;durP2;ratioP2;P2;SDS_P1;SDS_P2;PMS_P1;PMS_P2;Temp;Humidity;BMP_temperature;BMP_pressure;BME280_temperature;BME280_humidity;BME280_pressure;Samples;Min_cycle;Max_cycle;Signal;HPM_P1;HPM_P2
2021/06/05 00:00:54;;;;;;;17.92;13.70;;;;;;;16.54;100.00;100558.59;5017627;28;20054;-78
2021/06/05 00:03:22;;;;;;;15.15;13.38;;;;;;;16.51;100.00;100545.38;5018545;28;20108;-78
2021/06/05 00:05:57;;;;;;;15.45;13.90;;;;;;;16.46;100.00;100542.19;5017157;28;20054;-78
2021/06/05 00:08:28;;;;;;;17.48;15.07;;;;;;;16.41;100.00;100542.56;5018344;28;20111;-78
2021/06/05 00:11:04;;;;;;;20.02;15.23;;;;;;;16.49;100.00;100560.78;5018238;28;20046;-79
2021/06/05 00:13:36;;;;;;;17.58;15.75;;;;;;;16.43;100.00;100549.53;5018323;28;20395;-77
2021/06/05 00:16:05;;;;;;;18.55;16.50;;;;;;;16.42;100.00;100553.22;5017959;28;20119;-78
2021/06/05 00:18:32;;;;;;;18.40;16.33;;;;;;;16.45;100.00;100559.31;5018278;28;20139;-78
2021/06/05 00:20:59;;;;;;;19.85;16.60;;;;;;;16.34;100.00;100547.56;5037761;28;20423;-78
2021/06/05 00:23:27;;;;;;;19.73;16.90;;;;;;;16.45;100.00;100562.03;5020606;28;20049;-78
2021/06/05 00:25:55;;;;;;;21.52;17.80;;;;;;;16.40;100.00;100549.75;5037918;28;20077;-78
2021/06/05 00:28:22;;;;;;;21.20;17.25;;;;;;;16.43;100.00;100552.22;5038001;28;20053;-77
2021/06/05 00:30:49;;;;;;;24.08;17.75;;;;;;;16.52;100.00;100572.16;5037760;28;20116;-77
2021/06/05 00:33:17;;;;;;;21.15;17.95;;;;;;;16.52;100.00;100574.03;5036508;28;20075;-78
2021/06/05 00:35:43;;;;;;;22.65;17.92;;;;;;;16.45;100.00;100552.09;5037797;28;20103;-78
2021/06/05 00:38:10;;;;;;;25.80;18.17;;;;;;;16.55;100.00;100571.06;5037990;28;20108;-78
2021/06/05 00:40:44;;;;;;;19.42;17.25;;;;;;;16.43;100.00;100559.44;5037779;28;20104;-78
2021/06/05 00:43:13;;;;;;;21.88;17.83;;;;;;;16.61;100.00;100567.88;5036557;28;20383;-77
2021/06/05 00:45:43;;;;;;;24.52;17.55;;;;;;;16.70;100.00;100575.25;5037420;28;20143;-77
2021/06/05 00:48:11;;;;;;;21.77;18.10;;;;;;;16.74;100.00;100573.16;5037730;28;20394;-77
2021/06/05 00:50:40;;;;;;;24.15;18.20;;;;;;;16.75;100.00;100574.88;5037535;28;20050;-78
2021/06/05 00:53:07;;;;;;;26.70;17.67;;;;;;;16.78;100.00;100568.38;5037262;28;20076;-77
2021/06/05 00:55:38;;;;;;;26.80;18.98;;;;;;;16.84;100.00;100566.03;5037358;28;20053;-78
2021/06/05 00:58:05;;;;;;;24.08;18.52;;;;;;;16.89;100.00;100572.91;5036170;28;20332;-77
2021/06/05 01:00:47;;;;;;;25.02;18.65;;;;;;;16.88;100.00;100563.94;5036190;28;20100;-77
2021/06/05 01:03:15;;;;;;;26.50;18.60;;;;;;;16.82;100.00;100550.97;5037003;28;20049;-78
2021/06/05 01:05:45;;;;;;;26.63;19.33;;;;;;;16.88;100.00;100561.25;5037005;28;20058;-78
2021/06/05 01:08:12;;;;;;;32.53;21.40;;;;;;;16.80;100.00;100561.00;5037076;28;20453;-78
2021/06/05 01:10:41;;;;;;;28.73;20.70;;;;;;;16.85;100.00;100558.81;5036799;28;20502;-78
2021/06/05 01:13:21;;;;;;;30.63;21.13;;;;;;;16.84;100.00;100549.84;5036754;28;20454;-79
2021/06/05 01:15:59;;;;;;;30.27;20.27;;;;;;;16.84;100.00;100562.50;5035539;28;20443;-78
2021/06/05 01:18:36;;;;;;;32.17;21.90;;;;;;;16.79;100.00;100554.75;5036546;28;20073;-78
2021/06/05 01:21:25;;;;;;;32.53;22.08;;;;;;;16.88;100.00;100572.03;5016775;28;20108;-78
2021/06/05 01:24:19;;;;;;;34.92;22.00;;;;;;;16.90;99.90;100566.53;5016877;28;20054;-78
2021/06/05 01:26:56;;;;;;;30.73;21.75;;;;;;;16.84;100.00;100568.72;5017119;28;20116;-78
2021/06/05 01:29:36;;;;;;;27.70;21.40;;;;;;;16.81;100.00;100558.22;5032204;28;20113;-79
2021/06/05 01:32:08;;;;;;;32.17;22.40;;;;;;;16.82;100.00;100559.03;5016948;28;20116;-79
2021/06/05 01:34:39;;;;;;;35.03;23.33;;;;;;;16.82;100.00;100569.81;5016576;28;20092;-79
2021/06/05 01:37:07;;;;;;;;;;;;;;;16.78;100.00;100573.78;5017203;28;20088;-78
2021/06/05 01:39:37;;;;;;;33.65;23.35;;;;;;;16.77;100.00;100569.38;5016714;28;19925;-79
2021/06/05 01:42:12;;;;;;;39.35;24.35;;;;;;;16.83;100.00;100577.81;5016659;28;20053;-79
2021/06/05 01:44:41;;;;;;;34.38;23.95;;;;;;;16.81;100.00;100570.81;5016690;28;20050;-78
2021/06/05 01:47:11;;;;;;;33.58;24.40;;;;;;;16.85;100.00;100561.50;5016478;28;20054;-78
2021/06/05 01:49:38;;;;;;;35.17;25.25;;;;;;;16.72;100.00;100533.84;5016271;28;20416;-79
2021/06/05 01:52:11;;;;;;;38.65;25.50;;;;;;;16.73;100.00;100544.50;5016200;28;20046;-78
2021/06/05 01:54:46;;;;;;;36.35;25.13;;;;;;;16.89;100.00;100570.19;5015491;28;20100;-79
2021/06/05 01:57:18;;;;;;;34.50;24.58;;;;;;;16.87;100.00;100562.22;5016488;28;20112;-78
2021/06/05 01:59:46;;;;;;;43.40;25.98;;;;;;;16.90;100.00;100561.13;5016084;28;20046;-79
2021/06/05 02:02:12;;;;;;;40.17;26.58;;;;;;;16.87;100.00;100562.22;5016484;28;20054;-77
2021/06/05 02:04:39;;;;;;;45.22;28.02;;;;;;;16.72;100.00;100547.31;5016437;28;20149;-78
2021/06/05 02:07:07;;;;;;;44.33;27.75;;;;;;;16.80;100.00;100563.72;5031398;28;20435;-78
2021/06/05 02:09:34;;;;;;;42.25;27.55;;;;;;;16.82;100.00;100559.03;5016036;28;20061;-78
2021/06/05 02:12:14;;;;;;;43.83;28.42;;;;;;;16.85;100.00;100564.22;5014932;28;20058;-79
2021/06/05 02:14:50;;;;;;;43.23;28.40;;;;;;;16.81;100.00;100563.59;5015878;28;20061;-79
2021/06/05 02:17:20;;;;;;;47.50;30.17;;;;;;;16.85;100.00;100569.59;5016019;28;20428;-79
2021/06/05 02:19:55;;;;;;;48.33;29.33;;;;;;;16.87;100.00;100567.63;5027182;28;20123;-79
2021/06/05 02:22:24;;;;;;;45.90;30.00;;;;;;;16.79;100.00;100562.84;5035907;28;20049;-78
2021/06/05 02:24:57;;;;;;;49.95;32.47;;;;;;;16.83;100.00;100560.75;5035562;28;20057;-78
2021/06/05 02:27:27;;;;;;;47.83;31.77;;;;;;;16.82;100.00;100565.31;5036023;28;20049;-78
2021/06/05 02:29:56;;;;;;;36.08;23.60;;;;;;;16.84;100.00;100557.94;5036250;28;20501;-78
2021/06/05 02:32:27;;;;;;;47.72;32.65;;;;;;;16.84;100.00;100562.50;5036167;28;20050;-77
2021/06/05 02:34:56;;;;;;;52.13;33.05;;;;;;;16.77;100.00;100555.88;5034486;28;20057;-77
2021/06/05 02:37:26;;;;;;;52.67;32.88;;;;;;;16.79;100.00;100549.38;5035448;28;20525;-79
2021/06/05 02:39:58;;;;;;;;;;;;;;;16.84;100.00;100554.41;5036319;28;20058;-78
2021/06/05 02:42:25;;;;;;;53.08;31.00;;;;;;;16.80;100.00;100555.63;5035767;28;20306;-77
2021/06/05 02:44:55;;;;;;;51.63;31.92;;;;;;;16.81;100.00;100550.13;5035332;28;20103;-77
2021/06/05 02:47:25;;;;;;;52.88;31.83;;;;;;;16.67;100.00;100528.81;5034218;28;20354;-77
2021/06/05 02:49:52;;;;;;;55.75;34.03;;;;;;;16.70;100.00;100545.59;5034643;28;20096;-78
2021/06/05 02:52:32;;;;;;;63.10;33.75;;;;;;;16.67;100.00;100534.22;5034569;28;20095;-77
2021/06/05 02:55:05;;;;;;;56.58;34.83;;;;;;;16.76;100.00;100543.38;5035626;28;20065;-78
2021/06/05 02:57:33;;;;;;;63.70;36.97;;;;;;;16.64;100.00;100540.72;5035156;28;20485;-78
2021/06/05 03:00:37;;;;;;;66.13;38.15;;;;;;;16.60;100.00;100535.69;5035571;28;20056;-77
2021/06/05 03:03:05;;;;;;;59.05;34.90;;;;;;;16.70;100.00;100544.72;5035309;28;20095;-77
2021/06/05 03:05:34;;;;;;;67.95;36.67;;;;;;;16.66;100.00;100552.22;5035113;28;20049;-79
2021/06/05 03:08:02;;;;;;;62.33;35.85;;;;;;;16.71;100.00;100551.84;5035046;28;20115;-78
2021/06/05 03:10:31;;;;;;;68.35;37.40;;;;;;;16.66;100.00;100549.50;5035007;28;20053;-78
2021/06/05 03:12:59;;;;;;;64.40;35.53;;;;;;;16.69;100.00;100549.25;5034103;28;20383;-78
2021/06/05 03:15:27;;;;;;;68.20;36.20;;;;;;;16.65;100.00;100546.94;5034998;28;20084;-78
2021/06/05 03:17:56;;;;;;;65.78;36.42;;;;;;;16.74;100.00;100550.72;5033923;28;20053;-78
2021/06/05 03:20:26;;;;;;;72.55;39.35;;;;;;;16.68;100.00;100552.94;5018662;28;20051;-78
2021/06/05 03:22:54;;;;;;;70.65;37.58;;;;;;;16.69;100.00;100549.25;5015626;28;20355;-79
2021/06/05 03:25:22;;;;;;;70.18;38.00;;;;;;;16.70;100.00;100545.59;5019350;28;20049;-78
2021/06/05 03:27:48;;;;;;;69.90;37.97;;;;;;;16.65;100.00;100550.50;5034317;28;20092;-79
2021/06/05 03:30:16;;;;;;;69.95;37.53;;;;;;;16.66;100.00;100544.13;5018208;28;20089;-79
2021/06/05 03:32:44;;;;;;;68.35;37.33;;;;;;;16.70;100.00;100551.00;5018947;28;20104;-78
2021/06/05 03:35:12;;;;;;;70.63;38.25;;;;;;;16.69;100.00;100546.56;5019195;28;20053;-79
2021/06/05 03:37:39;;;;;;;72.43;38.58;;;;;;;16.66;100.00;100544.13;5019009;28;20053;-80
2021/06/05 03:40:09;;;;;;;76.03;39.15;;;;;;;16.69;100.00;100541.16;5018932;28;20505;-79
2021/06/05 03:42:36;;;;;;;76.40;38.35;;;;;;;16.72;100.00;100542.75;5018732;28;20332;-80
2021/06/05 03:45:07;;;;;;;71.95;38.55;;;;;;;16.66;100.00;100540.56;5018670;28;20050;-78
2021/06/05 03:47:35;;;;;;;71.47;38.88;;;;;;;16.70;100.00;100539.34;5018885;28;20156;-79
2021/06/05 03:50:04;;;;;;;75.75;38.60;;;;;;;16.63;100.00;100544.38;5018722;28;20058;-79
2021/06/05 03:52:31;;;;;;;74.25;37.97;;;;;;;16.52;100.00;100515.59;5018694;28;20053;-78
2021/06/05 03:54:58;;;;;;;82.15;39.75;;;;;;;16.65;100.00;100552.31;5018558;28;20324;-80
2021/06/05 03:57:26;;;;;;;69.55;36.88;;;;;;;16.65;100.00;100536.16;5018639;28;20116;-80
2021/06/05 03:59:55;;;;;;;72.50;37.42;;;;;;;16.60;100.00;100539.22;5018838;28;20098;-79
2021/06/05 04:02:24;;;;;;;68.30;36.70;;;;;;;16.63;100.00;100530.91;5018355;28;20094;-78
2021/06/05 04:04:51;;;;;;;73.15;36.85;;;;;;;16.69;100.00;100532.25;5017384;28;20054;-79
2021/06/05 04:07:20;;;;;;;68.20;36.88;;;;;;;16.67;100.00;100528.81;5018626;28;20111;-79
2021/06/05 04:09:46;;;;;;;69.05;36.47;;;;;;;16.68;100.00;100536.75;5017332;28;20058;-78
2021/06/05 04:12:13;;;;;;;74.25;36.95;;;;;;;16.70;100.00;100537.53;5018263;28;20046;-78
2021/06/05 04:14:41;;;;;;;68.70;35.85;;;;;;;16.76;100.00;100537.97;5017318;28;20119;-78
2021/06/05 04:17:10;;;;;;;77.15;37.95;;;;;;;16.77;100.00;100529.78;5018151;28;20404;-78
2021/06/05 04:19:38;;;;;;;77.35;38.53;;;;;;;16.76;100.00;100532.59;5028295;28;20328;-80
2021/06/05 04:22:06;;;;;;;79.30;37.72;;;;;;;16.78;100.00;100525.25;5037778;28;20103;-79
2021/06/05 04:24:34;;;;;;;69.00;36.78;;;;;;;16.76;100.00;100535.28;5038059;28;20053;-78
2021/06/05 04:27:00;;;;;;;69.57;35.47;;;;;;;16.81;100.00;100525.00;5037775;28;20045;-78
2021/06/05 04:29:28;;;;;;;72.13;37.13;;;;;;;16.81;100.00;100525.00;5038003;28;20123;-79
2021/06/05 04:31:55;;;;;;;73.60;35.65;;;;;;;16.83;100.00;100521.19;5037624;28;20053;-78
2021/06/05 04:34:22;;;;;;;69.38;35.83;;;;;;;16.77;100.00;100519.00;5036825;28;20049;-78
2021/06/05 04:36:50;;;;;;;67.30;35.75;;;;;;;16.79;100.00;100513.47;5036521;28;20057;-78
2021/06/05 04:39:17;;;;;;;72.13;35.28;;;;;;;16.89;100.00;100524.38;5037472;28;20057;-79
2021/06/05 04:41:44;;;;;;;67.85;35.40;;;;;;;16.80;100.00;100507.09;5036538;28;20053;-78
2021/06/05 04:44:11;;;;;;;70.63;36.40;;;;;;;16.94;100.00;100520.31;5037465;28;20172;-78
2021/06/05 04:46:38;;;;;;;66.07;36.65;;;;;;;16.79;100.00;100497.31;5037449;28;20436;-78
2021/06/05 04:49:08;;;;;;;72.63;36.20;;;;;;;16.83;100.00;100512.22;5036215;28;20056;-78
2021/06/05 04:51:37;;;;;;;77.25;37.47;;;;;;;16.79;100.00;100505.41;5037314;28;20080;-78
2021/06/05 04:54:04;;;;;;;74.32;37.22;;;;;;;16.93;100.00;100525.81;5037449;28;20138;-78
2021/06/05 04:56:42;;;;;;;71.85;36.95;;;;;;;16.98;100.00;100531.69;5036287;28;20515;-78
2021/06/05 04:59:10;;;;;;;71.68;35.65;;;;;;;17.04;100.00;100527.66;5037321;28;20057;-78
2021/06/05 05:01:37;;;;;;;75.78;37.60;;;;;;;17.08;100.00;100526.44;5037426;28;20107;-79
2021/06/05 05:04:04;;;;;;;68.80;36.85;;;;;;;17.05;100.00;100527.53;5037284;28;20050;-79
2021/06/05 05:06:32;;;;;;;68.50;36.20;;;;;;;17.05;100.00;100526.69;5037338;28;20115;-78
2021/06/05 05:08:58;;;;;;;61.88;35.17;;;;;;;17.07;100.00;100519.31;5036823;28;20104;-78
2021/06/05 05:11:25;;;;;;;61.05;33.83;;;;;;;17.11;100.00;100536.97;5036912;28;20050;-78
2021/06/05 05:13:52;;;;;;;63.95;34.92;;;;;;;17.09;100.00;100523.63;5036722;28;20354;-78
2021/06/05 05:16:20;;;;;;;62.15;34.55;;;;;;;17.13;100.00;100535.00;5036526;28;20057;-78
2021/06/05 05:18:48;;;;;;;60.85;34.83;;;;;;;17.17;100.00;100539.13;5033638;28;20431;-78
2021/06/05 05:21:16;;;;;;;63.08;33.97;;;;;;;17.18;100.00;100540.88;5017302;28;20054;-78
2021/06/05 05:23:43;;;;;;;57.83;33.92;;;;;;;17.11;100.00;100531.59;5016909;28;20490;-78
2021/06/05 05:26:10;;;;;;;65.20;36.13;;;;;;;17.16;100.00;100545.53;5016086;28;20096;-78
2021/06/05 05:28:39;;;;;;;59.47;36.45;;;;;;;17.09;99.35;100533.53;5017357;28;20108;-78
2021/06/05 05:31:10;;;;;;;64.43;36.22;;;;;;;17.10;100.00;100540.63;5016829;28;20059;-78
2021/06/05 05:33:38;;;;;;;59.25;34.72;;;;;;;17.20;100.00;100541.59;5016681;28;20092;-78
2021/06/05 05:36:08;;;;;;;65.32;37.92;;;;;;;17.14;98.97;100549.31;5016639;28;20081;-79
2021/06/05 05:38:37;;;;;;;62.75;36.33;;;;;;;17.17;98.86;100549.09;5017479;28;20131;-78
2021/06/05 05:41:06;;;;;;;64.15;36.83;;;;;;;17.12;98.79;100548.59;5017069;28;20081;-78
2021/06/05 05:43:32;;;;;;;64.63;37.78;;;;;;;16.99;99.34;100544.19;5026951;28;20038;-80
2021/06/05 05:45:59;;;;;;;69.43;37.22;;;;;;;17.08;99.67;100554.25;5040041;28;20050;-78
2021/06/05 05:48:32;;;;;;;68.72;38.38;;;;;;;17.23;99.41;100552.13;5026005;28;20489;-76
2021/06/05 05:50:59;;;;;;;68.50;38.50;;;;;;;17.20;98.70;100555.09;5041729;28;20141;-76
2021/06/05 05:53:26;;;;;;;74.80;39.55;;;;;;;17.00;99.73;100545.06;5022933;28;20042;-75
2021/06/05 05:55:53;;;;;;;72.35;37.80;;;;;;;17.10;99.71;100557.69;5017429;28;20049;-76
2021/06/05 05:58:23;;;;;;;75.60;39.70;;;;;;;17.06;99.59;100561.59;5020773;28;20060;-74
2021/06/05 06:00:51;;;;;;;67.55;38.42;;;;;;;17.03;99.43;100567.25;5030542;28;20049;-77
2021/06/05 06:03:20;;;;;;;76.20;39.42;;;;;;;16.99;99.89;100570.31;5029959;28;20068;-74
2021/06/05 06:05:48;;;;;;;73.43;39.80;;;;;;;17.07;99.95;100567.88;5028347;28;20048;-74
2021/06/05 06:08:18;;;;;;;71.97;38.88;;;;;;;17.14;99.62;100582.56;5028754;28;20394;-75
2021/06/05 06:10:46;;;;;;;69.93;37.35;;;;;;;17.26;99.81;100588.78;5030714;28;20053;-75
2021/06/05 06:13:12;;;;;;;70.40;38.00;;;;;;;17.23;99.90;100587.19;5028736;28;20046;-74
2021/06/05 06:15:39;;;;;;;70.45;38.35;;;;;;;17.31;99.38;100586.56;5025918;28;20054;-75
2021/06/05 06:18:09;;;;;;;71.07;39.35;;;;;;;17.29;99.66;100598.47;5026548;28;20050;-76
2021/06/05 06:20:44;;;;;;;71.47;39.83;;;;;;;17.18;100.00;100589.44;5026899;28;20111;-74
2021/06/05 06:23:14;;;;;;;72.13;38.95;;;;;;;17.19;100.00;100604.63;5025816;28;20050;-74
2021/06/05 06:25:43;;;;;;;79.55;40.60;;;;;;;17.10;100.00;100594.56;5023772;28;20394;-76
2021/06/05 06:28:12;;;;;;;72.60;38.53;;;;;;;17.14;100.00;100606.84;5021680;28;20112;-75
2021/06/05 06:30:41;;;;;;;71.10;38.60;;;;;;;17.16;100.00;100607.56;5025183;28;20097;-79
2021/06/05 06:33:10;;;;;;;75.05;39.08;;;;;;;17.02;100.00;100597.91;5018985;28;20056;-75
2021/06/05 06:35:37;;;;;;;72.10;39.45;;;;;;;17.06;100.00;100603.91;5021501;28;20099;-75
2021/06/05 06:38:15;;;;;;;66.68;36.92;;;;;;;17.02;100.00;100588.94;5040796;28;20123;-79
2021/06/05 06:40:42;;;;;;;71.13;37.50;;;;;;;17.10;100.00;100614.31;5021832;28;20164;-76
2021/06/05 06:43:12;;;;;;;64.25;35.58;;;;;;;17.07;100.00;100613.72;5022742;28;20133;-75
2021/06/05 06:45:39;;;;;;;65.72;35.95;;;;;;;17.05;100.00;100596.81;5022867;28;20046;-77
2021/06/05 06:48:06;;;;;;;65.78;37.53;;;;;;;17.07;100.00;100611.88;5021244;28;20100;-79
2021/06/05 06:50:33;;;;;;;62.80;35.70;;;;;;;17.15;100.00;100616.63;5025306;28;20401;-76
2021/06/05 06:53:00;;;;;;;67.35;37.20;;;;;;;17.16;100.00;100614.81;5025619;28;20045;-76
2021/06/05 06:55:28;;;;;;;68.82;36.75;;;;;;;17.06;100.00;100607.44;5024464;28;20111;-76
2021/06/05 06:57:55;;;;;;;69.85;37.92;;;;;;;17.13;100.00;100618.59;5020006;28;20053;-77
2021/06/05 07:00:34;;;;;;;69.95;38.33;;;;;;;17.18;100.00;100624.50;5026225;28;20111;-77
2021/06/05 07:03:00;;;;;;;89.57;43.13;;;;;;;17.17;100.00;100628.13;5030998;28;20129;-76
2021/06/05 07:05:28;;;;;;;94.70;48.13;;;;;;;17.07;100.00;100629.88;5027946;28;20053;-78
2021/06/05 07:08:06;;;;;;;101.30;50.15;;;;;;;16.97;100.00;100630.63;5029294;28;20046;-76
2021/06/05 07:10:33;;;;;;;105.90;51.28;;;;;;;16.97;100.00;100632.44;5027825;28;20057;-76
2021/06/05 07:13:00;;;;;;;110.78;53.42;;;;;;;16.94;100.00;100638.09;5031942;28;20046;-77
2021/06/05 07:15:27;;;;;;;103.28;52.83;;;;;;;16.93;100.00;100636.34;5025796;28;20061;-76
2021/06/05 07:17:53;;;;;;;102.03;51.72;;;;;;;16.87;100.00;100639.53;5024834;28;20057;-76
2021/06/05 07:20:20;;;;;;;111.22;53.88;;;;;;;16.88;100.00;100638.59;5024835;28;20050;-78
2021/06/05 07:22:47;;;;;;;104.22;52.28;;;;;;;16.92;100.00;100650.81;5026933;28;20462;-78
2021/06/05 07:25:14;;;;;;;105.10;52.30;;;;;;;16.97;100.00;100644.09;5031225;28;20061;-78
2021/06/05 07:27:40;;;;;;;105.22;51.83;;;;;;;17.02;100.00;100643.75;5025334;28;20046;-79
2021/06/05 07:30:08;;;;;;;95.78;50.78;;;;;;;17.03;97.79;100652.69;5025656;28;20046;-76
2021/06/05 07:32:35;;;;;;;107.50;51.88;;;;;;;16.97;98.98;100649.50;5029100;28;20045;-78
2021/06/05 07:35:04;;;;;;;107.28;53.17;;;;;;;17.01;98.87;100654.63;5027711;28;20049;-79
2021/06/05 07:37:31;;;;;;;96.07;50.08;;;;;;;17.04;98.14;100649.88;5017994;28;20085;-79
2021/06/05 07:39:57;;;;;;;99.22;50.92;;;;;;;17.06;98.10;100658.69;5019100;28;20057;-78
2021/06/05 07:42:24;;;;;;;97.53;50.45;;;;;;;17.10;97.32;100659.28;5018784;28;20108;-78
2021/06/05 07:44:50;;;;;;;99.30;51.13;;;;;;;17.13;97.23;100652.81;5018200;28;20423;-78
2021/06/05 07:47:17;;;;;;;101.60;51.47;;;;;;;17.16;97.14;100655.25;5016364;28;20506;-78
2021/06/05 07:49:44;;;;;;;102.20;53.50;;;;;;;17.10;96.54;100646.69;5018428;28;20104;-78
2021/06/05 07:52:12;;;;;;;100.07;50.95;;;;;;;17.07;97.00;100651.47;5018213;28;20050;-77
2021/06/05 07:54:39;;;;;;;95.22;49.97;;;;;;;17.12;96.70;100654.66;5017891;28;20054;-78
2021/06/05 07:57:07;;;;;;;100.35;52.45;;;;;;;17.07;97.24;100646.94;5017936;28;20111;-78
2021/06/05 07:59:35;;;;;;;101.15;50.35;;;;;;;17.15;97.88;100651.69;5018228;28;20074;-77
2021/06/05 08:02:01;;;;;;;100.38;52.65;;;;;;;17.05;96.85;100640.78;5018496;28;20050;-78
2021/06/05 08:04:28;;;;;;;96.90;50.70;;;;;;;17.11;96.68;100655.63;5018731;28;20053;-78
2021/06/05 08:06:56;;;;;;;104.03;53.90;;;;;;;17.09;96.24;100647.66;5018495;28;20356;-78
2021/06/05 08:09:23;;;;;;;107.97;54.17;;;;;;;17.04;96.40;100647.19;5033173;28;20057;-78
2021/06/05 08:11:50;;;;;;;111.60;54.88;;;;;;;17.08;96.37;100663.97;5018248;28;20399;-78
2021/06/05 08:14:17;;;;;;;99.82;52.78;;;;;;;17.12;96.39;100667.28;5018156;28;20395;-78
2021/06/05 08:16:44;;;;;;;110.60;57.42;;;;;;;17.08;97.53;100662.13;5017917;28;20061;-78
2021/06/05 08:19:13;;;;;;;113.10;57.88;;;;;;;17.13;97.65;100675.25;5024522;28;20053;-78
2021/06/05 08:21:42;;;;;;;116.10;62.00;;;;;;;17.02;96.72;100664.44;5036974;28;20084;-77
2021/06/05 08:24:11;;;;;;;110.55;58.72;;;;;;;17.05;97.23;100666.91;5037755;28;20435;-77
2021/06/05 08:26:39;;;;;;;110.63;59.90;;;;;;;17.02;96.51;100667.16;5037879;28;20061;-78
2021/06/05 08:29:06;;;;;;;113.90;62.03;;;;;;;16.87;97.70;100670.06;5037798;28;20104;-78
2021/06/05 08:31:33;;;;;;;114.43;63.60;;;;;;;16.83;96.59;100660.50;5036822;28;20053;-77
2021/06/05 08:34:00;;;;;;;106.75;60.50;;;;;;;16.81;96.84;100666.03;5037736;28;20081;-77
2021/06/05 08:36:29;;;;;;;98.53;56.30;;;;;;;16.81;97.58;100660.63;5037538;28;20136;-77
2021/06/05 08:38:56;;;;;;;93.07;55.50;;;;;;;16.87;97.54;100669.19;5037841;28;20057;-78
2021/06/05 08:41:35;;;;;;;98.28;56.17;;;;;;;16.88;97.37;100661.00;5037467;28;20049;-78
2021/06/05 08:44:13;;;;;;;91.38;57.00;;;;;;;16.83;97.30;100673.97;5037492;28;20093;-78
2021/06/05 08:46:44;;;;;;;87.65;54.95;;;;;;;16.95;97.34;100672.16;5037283;28;20053;-78
2021/06/05 08:49:41;;;;;;;87.38;52.13;;;;;;;16.95;95.68;100681.09;5037719;28;20050;-78
2021/06/05 08:52:09;;;;;;;90.32;55.05;;;;;;;16.91;95.31;100679.63;5037468;28;20084;-78
2021/06/05 08:54:40;;;;;;;91.82;54.63;;;;;;;16.82;95.08;100680.34;5037388;28;20057;-79
2021/06/05 08:57:22;;;;;;;97.07;55.05;;;;;;;16.87;96.03;100679.97;5037438;28;20319;-78
2021/06/05 08:59:49;;;;;;;99.22;58.88;;;;;;;16.78;95.91;100681.59;5037310;28;20203;-77
2021/06/05 09:02:16;;;;;;;92.18;55.33;;;;;;;16.81;95.74;100676.81;5037057;28;20114;-77
2021/06/05 09:04:43;;;;;;;86.75;53.05;;;;;;;16.86;95.86;100671.06;5037006;28;20042;-78
2021/06/05 09:07:14;;;;;;;88.38;53.20;;;;;;;16.84;94.55;100676.56;5036932;28;20053;-77
2021/06/05 09:09:43;;;;;;;92.32;54.20;;;;;;;16.74;94.72;100669.31;5036904;28;20053;-77
2021/06/05 09:12:11;;;;;;;89.15;54.70;;;;;;;16.75;96.06;100684.50;5036679;28;20058;-76
2021/06/05 09:14:38;;;;;;;94.70;55.22;;;;;;;16.79;96.38;100692.22;5036627;28;20085;-77
2021/06/05 09:17:21;;;;;;;89.70;52.80;;;;;;;16.86;95.66;100680.97;5051955;28;20355;-77
2021/06/05 09:20:25;;;;;;;78.88;50.28;;;;;;;16.81;95.85;100687.59;5025421;28;20057;-77
2021/06/05 09:22:53;;;;;;;88.35;52.83;;;;;;;16.72;96.50;100682.06;5015302;28;20108;-77
2021/06/05 09:25:37;;;;;;;84.97;50.53;;;;;;;16.80;96.91;100687.72;5016810;28;20053;-77
2021/06/05 09:28:12;;;;;;;74.95;45.50;;;;;;;16.82;94.73;100672.25;5015602;28;20321;-78
2021/06/05 09:30:41;;;;;;;75.97;45.05;;;;;;;16.89;94.78;100689.66;5016715;28;20517;-77
2021/06/05 09:33:11;;;;;;;69.28;42.05;;;;;;;17.01;93.12;100685.16;5015522;28;20439;-77
2021/06/05 09:35:45;;;;;;;64.20;39.45;;;;;;;17.09;92.05;100685.41;5016778;28;20065;-78
2021/06/05 09:38:33;;;;;;;65.03;39.53;;;;;;;17.20;93.23;100686.38;5016609;28;20419;-78
2021/06/05 09:41:23;;;;;;;64.45;39.35;;;;;;;17.35;91.57;100692.38;5016391;28;20060;-78
2021/06/05 09:43:53;;;;;;;69.90;42.10;;;;;;;17.15;90.70;100684.06;5014963;28;20431;-77
2021/06/05 09:46:19;;;;;;;70.40;41.40;;;;;;;17.17;92.01;100698.28;5015743;28;20065;-78
2021/06/05 09:48:50;;;;;;;63.88;40.20;;;;;;;17.13;91.04;100702.22;5016589;28;20144;-79
2021/06/05 09:51:30;;;;;;;;;;;;;;;17.17;92.27;100703.66;5017221;28;20427;-83
2021/06/05 09:54:09;;;;;;;68.10;41.80;;;;;;;17.29;91.57;100704.53;5016163;28;20027;-78
2021/06/05 09:56:42;;;;;;;69.90;41.72;;;;;;;17.21;91.27;100705.16;5015220;28;20124;-77
2021/06/05 09:59:31;;;;;;;68.15;38.97;;;;;;;17.32;90.98;100695.34;5016546;28;20065;-78
2021/06/05 10:02:06;;;;;;;69.03;37.95;;;;;;;17.48;91.57;100703.00;5016016;28;20057;-80
2021/06/05 10:04:36;;;;;;;63.92;38.40;;;;;;;17.36;89.72;100705.75;5027515;28;20100;-83
2021/06/05 10:07:23;;;;;;;59.83;37.78;;;;;;;17.56;90.19;100713.19;5019082;28;20398;-83
2021/06/05 10:10:17;;;;;;;61.17;36.63;;;;;;;17.58;89.78;100716.63;5015418;28;20062;-83
2021/06/05 10:12:45;;;;;;;57.88;36.10;;;;;;;17.62;89.41;100726.19;5014586;28;20050;-81
2021/06/05 10:15:15;;;;;;;58.22;36.20;;;;;;;17.62;89.41;100716.25;5015858;28;20514;-83
2021/06/05 10:17:52;;;;;;;62.05;36.35;;;;;;;17.52;88.91;100723.38;5015001;28;20535;-82
2021/06/05 10:20:38;;;;;;;57.28;35.08;;;;;;;17.35;88.21;100724.75;5031409;28;20103;-83
2021/06/05 10:23:06;;;;;;;65.97;38.08;;;;;;;17.45;87.54;100728.44;5035066;28;20104;-82
2021/06/05 10:25:40;;;;;;;67.95;39.22;;;;;;;17.29;89.10;100718.03;5035564;28;20054;-80
2021/06/05 10:28:18;;;;;;;67.85;40.75;;;;;;;17.33;88.45;100732.13;5035512;28;20457;-77
2021/06/05 10:30:55;;;;;;;68.68;39.58;;;;;;;17.28;88.92;100731.63;5035434;28;20049;-79
2021/06/05 10:33:28;;;;;;;69.65;40.15;;;;;;;17.16;89.06;100728.09;5035255;28;20049;-80
2021/06/05 10:35:56;;;;;;;67.93;39.22;;;;;;;17.21;89.13;100729.41;5035564;28;20057;-77
2021/06/05 10:38:35;;;;;;;64.97;40.45;;;;;;;17.00;89.76;100720.31;5027501;28;20047;-77
2021/06/05 10:41:02;;;;;;;71.00;39.80;;;;;;;17.16;89.52;100728.09;5024283;28;20077;-76
2021/06/05 10:43:29;;;;;;;76.32;43.00;;;;;;;17.10;89.07;100729.41;5025569;28;20065;-76
2021/06/05 10:45:57;;;;;;;79.63;43.70;;;;;;;17.04;89.65;100732.59;5023346;28;20049;-77
2021/06/05 10:48:36;;;;;;;75.13;42.72;;;;;;;17.09;90.41;100739.34;5017754;28;20423;-76
2021/06/05 10:51:20;;;;;;;76.65;43.17;;;;;;;17.08;89.54;100736.78;5026093;28;20064;-76
2021/06/05 10:54:13;;;;;;;74.00;42.38;;;;;;;16.93;90.25;100736.97;5027233;28;20050;-76
2021/06/05 10:56:58;;;;;;;69.25;41.70;;;;;;;16.79;90.70;100731.81;5025431;28;20100;-78
2021/06/05 10:59:40;;;;;;;73.65;42.10;;;;;;;16.84;90.75;100732.31;5022433;28;20081;-78
2021/06/05 11:02:08;;;;;;;72.90;40.85;;;;;;;16.67;90.99;100736.34;5023634;28;20085;-78
2021/06/05 11:04:44;;;;;;;72.70;42.42;;;;;;;16.67;91.41;100736.34;5023450;28;20084;-80
2021/06/05 11:07:33;;;;;;;79.38;42.47;;;;;;;16.76;91.74;100745.53;5025823;28;20057;-78
2021/06/05 11:10:06;;;;;;;78.25;43.03;;;;;;;16.66;91.84;100750.78;5024484;28;20132;-89
2021/06/05 11:12:33;;;;;;;77.05;42.92;;;;;;;16.64;90.46;100750.91;5022876;28;20075;-78
2021/06/05 11:15:00;;;;;;;73.75;42.45;;;;;;;16.55;91.61;100735.44;5024718;28;20046;-83
2021/06/05 11:17:34;;;;;;;73.13;42.63;;;;;;;16.58;90.92;100743.31;5019411;28;20422;-85
2021/06/05 11:20:08;;;;;;;91.70;49.22;;;;;;;16.62;91.14;100750.16;5023606;28;20045;-77